Time;durP1;ratioP1;P1;durP2;ratioP2;P2;SDS_P1;SDS_P2;PMS_P1;PMS_P2;Temp;Humidity;BMP_temperature;BMP_pressure;BME280_temperature;BME280_humidity;BME280_pressure;Samples;Min_cycle;Max_cycle;Signal;HPM_P1;HPM_P2
2022/02/24 00:02:18;;;;;;;10.68;5.47;;;;;;;-0.05;100.00;97165.84;5033569;28;20057;-62
2022/02/24 00:04:44;;;;;;;9.40;5.05;;;;;;;0.05;100.00;97156.84;5039914;28;20048;-65
2022/02/24 00:07:21;;;;;;;10.65;5.25;;;;;;;0.05;100.00;97164.13;5035013;28;20052;-66
2022/02/24 00:09:46;;;;;;;10.20;5.68;;;;;;;-0.08;100.00;97157.53;5057897;28;20041;-65
2022/02/24 00:12:12;;;;;;;8.32;5.05;;;;;;;-0.16;100.00;97155.47;5044414;28;20037;-65
2022/02/24 00:14:37;;;;;;;9.27;5.20;;;;;;;-0.24;100.00;97157.69;5040862;28;20505;-65
2022/02/24 00:17:03;;;;;;;10.55;5.55;;;;;;;-0.31;100.00;97146.47;5038405;28;20059;-68
2022/02/24 00:19:30;;;;;;;11.85;5.35;;;;;;;-0.17;100.00;97157.38;5036074;28;20048;-62
2022/02/24 00:21:56;;;;;;;11.07;5.43;;;;;;;-0.14;100.00;97150.63;5040080;28;20045;-66
2022/02/24 00:24:21;;;;;;;8.95;5.60;;;;;;;-0.04;100.00;97150.47;5032706;28;20502;-66
2022/02/24 00:26:46;;;;;;;13.18;5.60;;;;;;;-0.03;100.00;97147.50;5039464;28;20049;-65
2022/02/24 00:29:12;;;;;;;11.00;4.93;;;;;;;-0.12;100.00;97146.53;5036479;28;20472;-65
2022/02/24 00:31:37;;;;;;;10.80;6.70;;;;;;;0.02;100.00;97153.91;5040562;28;20041;-64
2022/02/24 00:34:02;;;;;;;8.38;5.40;;;;;;;0.04;100.00;97151.75;5034939;28;20055;-68
2022/02/24 00:36:28;;;;;;;13.13;5.30;;;;;;;0.10;100.00;97143.31;5038461;28;20810;-64
2022/02/24 00:38:53;;;;;;;8.73;4.85;;;;;;;0.10;100.00;97145.22;5040127;28;20048;-65
2022/02/24 00:41:19;;;;;;;12.13;5.60;;;;;;;0.07;100.00;97137.72;5034487;28;20124;-64
2022/02/24 00:43:44;;;;;;;10.82;5.88;;;;;;;0.04;100.00;97143.66;5040145;28;20053;-64
2022/02/24 00:46:10;;;;;;;10.63;5.78;;;;;;;0.05;100.00;97146.06;5036625;28;20469;-66
2022/02/24 00:48:36;;;;;;;11.02;5.43;;;;;;;0.10;100.00;97146.00;5039406;28;20033;-63
2022/02/24 00:51:03;;;;;;;10.60;5.35;;;;;;;0.15;100.00;97139.78;5037669;28;20106;-68
2022/02/24 00:53:29;;;;;;;7.43;4.47;;;;;;;-0.17;100.00;97146.59;5054237;28;20509;-65
2022/02/24 00:55:54;;;;;;;8.07;5.32;;;;;;;-0.33;100.00;97139.78;5040415;28;20048;-64
2022/02/24 00:58:22;;;;;;;14.40;4.97;;;;;;;-0.52;100.00;97143.19;5036064;28;20139;-63
2022/02/24 01:00:48;;;;;;;8.50;4.72;;;;;;;-0.56;100.00;97147.50;5040988;28;20393;-64
2022/02/24 01:03:14;;;;;;;7.53;4.85;;;;;;;-0.61;100.00;97136.81;5035428;28;20041;-64
2022/02/24 01:05:39;;;;;;;8.73;4.63;;;;;;;-0.59;100.00;97143.50;5039037;28;20043;-65
2022/02/24 01:08:05;;;;;;;12.43;5.45;;;;;;;-0.65;100.00;97144.66;5039844;28;20063;-67
2022/02/24 01:10:30;;;;;;;10.07;5.38;;;;;;;-0.53;100.00;97138.88;5026125;28;20044;-61
2022/02/24 01:12:56;;;;;;;9.60;5.10;;;;;;;-0.36;100.00;97138.47;5043909;28;20512;-65
2022/02/24 01:15:21;;;;;;;10.45;6.18;;;;;;;-0.26;100.00;97134.84;5039289;28;21414;-63
2022/02/24 01:17:46;;;;;;;10.25;5.18;;;;;;;-0.25;100.00;97136.47;5043507;28;20045;-64
2022/02/24 01:20:12;;;;;;;9.38;5.20;;;;;;;-0.18;100.00;97130.72;5037193;28;20084;-64
2022/02/24 01:22:37;;;;;;;6.70;4.82;;;;;;;-0.18;100.00;97128.84;5042533;28;20044;-62
2022/02/24 01:25:04;;;;;;;9.73;4.82;;;;;;;-0.17;100.00;97127.75;5042101;28;20044;-63
2022/02/24 01:27:30;;;;;;;8.80;5.00;;;;;;;-0.08;100.00;97122.53;5034140;28;20417;-65
2022/02/24 01:29:56;;;;;;;7.45;4.30;;;;;;;-0.02;100.00;97116.00;5052335;28;20017;-62
2022/02/24 01:32:21;;;;;;;10.60;5.07;;;;;;;-0.02;100.00;97110.59;5053368;28;20519;-64
2022/02/24 01:34:47;;;;;;;8.88;4.93;;;;;;;-0.03;100.00;97117.09;5052997;28;20052;-65
2022/02/24 01:37:12;;;;;;;11.13;4.78;;;;;;;-0.08;100.00;97107.19;5051559;28;20070;-65
2022/02/24 01:39:38;;;;;;;6.10;4.13;;;;;;;-0.15;100.00;97101.34;5053458;28;20032;-63
2022/02/24 01:42:04;;;;;;;8.38;4.40;;;;;;;-0.21;100.00;97099.81;5053078;28;20032;-65
2022/02/24 01:44:43;;;;;;;8.32;4.60;;;;;;;-0.24;100.00;97098.47;5052736;28;20112;-63
2022/02/24 01:47:09;;;;;;;6.65;4.53;;;;;;;-0.18;100.00;97087.66;5052435;28;20592;-63
2022/02/24 01:49:35;;;;;;;5.97;4.75;;;;;;;-0.19;100.00;97081.47;5053192;28;20104;-65
2022/02/24 01:52:04;;;;;;;8.05;4.85;;;;;;;-0.22;100.00;97074.78;5053359;28;20501;-64
2022/02/24 01:54:29;;;;;;;11.20;5.22;;;;;;;-0.23;100.00;97067.00;5052972;28;20028;-64
2022/02/24 01:56:56;;;;;;;9.57;5.03;;;;;;;-0.21;100.00;97070.19;5052717;28;20401;-65
2022/02/24 01:59:21;;;;;;;9.05;4.85;;;;;;;-0.23;100.00;97064.28;5052813;28;20430;-65
2022/02/24 02:01:47;;;;;;;10.63;5.75;;;;;;;-0.31;100.00;97059.53;5051533;28;20135;-63
2022/02/24 02:04:12;;;;;;;8.40;6.05;;;;;;;-0.45;100.00;97062.09;5052751;28;20036;-65
2022/02/24 02:06:39;;;;;;;8.85;5.15;;;;;;;-0.57;100.00;97057.13;5052433;28;20048;-65
2022/02/24 02:09:05;;;;;;;15.07;5.70;;;;;;;-0.57;100.00;97057.13;5052438;28;20041;-65
2022/02/24 02:11:30;;;;;;;10.20;5.65;;;;;;;-0.50;100.00;97056.81;5052443;28;20478;-65
2022/02/24 02:13:55;;;;;;;8.32;5.45;;;;;;;-0.53;100.00;97050.09;5051959;28;20116;-65
2022/02/24 02:16:21;;;;;;;9.15;5.45;;;;;;;-0.50;100.00;97046.84;5052016;28;20029;-63
2022/02/24 02:18:46;;;;;;;6.88;4.95;;;;;;;-0.48;100.00;97049.25;5051916;28;20044;-65
2022/02/24 02:21:12;;;;;;;9.23;5.25;;;;;;;-0.48;100.00;97055.41;5051950;28;20564;-64
2022/02/24 02:23:37;;;;;;;7.22;4.85;;;;;;;-0.43;100.00;97035.72;5052266;28;20032;-64
2022/02/24 02:26:02;;;;;;;7.93;4.82;;;;;;;-0.39;100.00;97048.31;5051822;28;20098;-64
2022/02/24 02:28:28;;;;;;;9.38;5.40;;;;;;;-0.44;100.00;97034.91;5052003;28;20036;-64
2022/02/24 02:30:53;;;;;;;6.78;5.07;;;;;;;-0.46;100.00;97039.78;5052416;28;20032;-61
2022/02/24 02:33:19;;;;;;;7.93;4.85;;;;;;;-0.46;100.00;97034.41;5052106;28;20055;-64
2022/02/24 02:35:44;;;;;;;9.57;4.93;;;;;;;-0.45;100.00;97036.00;5053936;28;20436;-65
2022/02/24 02:38:10;;;;;;;8.35;5.32;;;;;;;-0.46;100.00;97034.41;5069313;28;20040;-66
2022/02/24 02:40:37;;;;;;;9.60;5.82;;;;;;;-0.50;100.00;97028.00;5059998;28;20385;-65
2022/02/24 02:43:10;;;;;;;9.02;5.38;;;;;;;-0.44;100.00;97028.72;5054245;28;20029;-64
2022/02/24 02:45:38;;;;;;;9.70;5.13;;;;;;;-0.43;100.00;97022.28;5054166;28;20482;-63
2022/02/24 02:48:05;;;;;;;9.30;5.40;;;;;;;-0.44;100.00;97018.75;5054645;28;20112;-64
2022/02/24 02:50:31;;;;;;;8.07;5.10;;;;;;;-0.52;100.00;97016.72;5059294;28;20029;-66
2022/02/24 02:53:00;;;;;;;8.25;5.22;;;;;;;-0.49;100.00;97015.34;5060605;28;20025;-64
2022/02/24 02:55:25;;;;;;;7.82;5.35;;;;;;;-0.43;100.00;97004.22;5053003;28;20040;-66
2022/02/24 02:57:51;;;;;;;9.80;5.50;;;;;;;-0.41;100.00;97010.13;5052489;28;20413;-66
2022/02/24 03:00:17;;;;;;;7.95;5.55;;;;;;;-0.59;100.00;97009.00;5051565;28;20043;-65
2022/02/24 03:02:42;;;;;;;8.88;5.53;;;;;;;-0.57;100.00;97005.22;5052578;28;20025;-64
2022/02/24 03:05:09;;;;;;;14.10;7.47;;;;;;;-0.62;100.00;97009.56;5052700;28;20064;-64
2022/02/24 03:07:34;;;;;;;8.95;5.88;;;;;;;-0.74;100.00;97009.16;5052927;28;20033;-64
2022/02/24 03:10:00;;;;;;;8.02;5.38;;;;;;;-0.75;100.00;97012.16;5052229;28;20112;-64
2022/02/24 03:12:26;;;;;;;10.30;5.28;;;;;;;-0.97;100.00;97002.69;5050557;28;20031;-61
2022/02/24 03:14:51;;;;;;;7.40;5.35;;;;;;;-1.00;100.00;97003.25;5050598;28;20032;-64
2022/02/24 03:17:17;;;;;;;7.22;4.50;;;;;;;-1.04;100.00;96996.84;5058181;28;20045;-65
2022/02/24 03:19:42;;;;;;;8.48;5.15;;;;;;;-1.23;100.00;96992.16;5049180;28;20495;-65
2022/02/24 03:22:11;;;;;;;8.63;5.32;;;;;;;-1.43;100.00;96985.06;5051695;28;20044;-66
2022/02/24 03:24:37;;;;;;;9.18;5.82;;;;;;;-1.54;100.00;96987.06;5032828;28;20033;-65
2022/02/24 03:27:03;;;;;;;9.65;5.60;;;;;;;-1.60;100.00;96977.44;5051878;28;20389;-63
2022/02/24 03:29:29;;;;;;;11.02;5.85;;;;;;;-1.63;100.00;96978.00;5051371;28;20029;-63
2022/02/24 03:31:54;;;;;;;9.27;5.78;;;;;;;-1.66;100.00;96978.53;5051245;28;20093;-64
2022/02/24 03:34:20;;;;;;;10.45;5.82;;;;;;;-1.53;100.00;96979.81;5049679;28;20056;-65
2022/02/24 03:36:46;;;;;;;12.55;5.72;;;;;;;-1.27;100.00;96984.97;5030575;28;20087;-64
2022/02/24 03:39:11;;;;;;;14.23;6.53;;;;;;;-1.25;100.00;96980.88;5031991;28;20021;-63
2022/02/24 03:41:36;;;;;;;9.95;5.13;;;;;;;-1.17;100.00;96980.28;5050587;28;20496;-65
2022/02/24 03:44:02;;;;;;;9.95;5.72;;;;;;;-1.11;100.00;96981.03;5049631;28;20067;-62
2022/02/24 03:46:27;;;;;;;9.35;5.38;;;;;;;-1.09;100.00;96976.16;5051483;28;20035;-64
2022/02/24 03:48:53;;;;;;;10.15;5.00;;;;;;;-1.10;100.00;96974.56;5057957;28;20059;-65
2022/02/24 03:51:18;;;;;;;19.88;11.52;;;;;;;-1.16;100.00;96973.00;5052844;28;20039;-61
2022/02/24 03:53:44;;;;;;;10.93;8.50;;;;;;;-1.26;100.00;96965.03;5053336;28;20654;-66
2022/02/24 03:56:10;;;;;;;8.98;5.78;;;;;;;-1.38;100.00;96968.13;5057277;28;20040;-65
2022/02/24 03:58:35;;;;;;;9.57;5.65;;;;;;;-1.38;100.00;96965.44;5043240;28;20048;-65
2022/02/24 04:01:00;;;;;;;8.52;5.75;;;;;;;-1.35;100.00;96970.25;5051664;28;20029;-64
2022/02/24 04:03:26;;;;;;;10.70;6.10;;;;;;;-1.24;100.00;96963.69;5050563;28;20175;-63
2022/02/24 04:05:52;;;;;;;11.65;6.30;;;;;;;-1.24;100.00;96952.13;5049823;28;20561;-64
2022/02/24 04:08:18;;;;;;;15.50;5.90;;;;;;;-1.18;100.00;96948.31;5051257;28;20024;-65
2022/02/24 04:10:43;;;;;;;9.38;5.30;;;;;;;-1.22;100.00;96949.97;5050955;28;20473;-65
2022/02/24 04:13:09;;;;;;;10.23;5.63;;;;;;;-1.27;100.00;96958.88;5041717;28;20025;-64
2022/02/24 04:15:36;;;;;;;8.52;5.00;;;;;;;-1.20;100.00;96950.50;5050641;28;20546;-64
2022/02/24 04:18:03;;;;;;;8.70;5.15;;;;;;;-1.29;100.00;96942.25;5050237;28;20116;-65
2022/02/24 04:20:28;;;;;;;7.43;5.55;;;;;;;-1.35;100.00;96940.69;5047262;28;20040;-63
2022/02/24 04:22:54;;;;;;;8.55;5.10;;;;;;;-1.31;100.00;96930.19;5049272;28;20029;-64
2022/02/24 04:25:19;;;;;;;8.82;4.97;;;;;;;-1.28;100.00;96932.28;5049563;28;20124;-64
2022/02/24 04:27:46;;;;;;;10.30;5.88;;;;;;;-1.30;100.00;96935.25;5050151;28;20437;-63
2022/02/24 04:30:12;;;;;;;8.60;4.88;;;;;;;-1.32;100.00;96932.03;5072191;28;20037;-62
2022/02/24 04:32:39;;;;;;;9.48;5.70;;;;;;;-1.28;100.00;96922.31;5050838;28;20028;-63
2022/02/24 04:35:05;;;;;;;6.43;4.43;;;;;;;-1.21;100.00;96916.63;5055643;28;20087;-60
2022/02/24 04:37:30;;;;;;;6.82;5.13;;;;;;;-1.20;100.00;96919.03;5053900;28;20029;-61
2022/02/24 04:39:56;;;;;;;7.88;4.97;;;;;;;-1.19;100.00;96915.25;5051966;28;20093;-64
2022/02/24 04:42:21;;;;;;;9.75;5.53;;;;;;;-1.12;100.00;96917.59;5058121;28;20044;-65
2022/02/24 04:44:46;;;;;;;8.80;5.22;;;;;;;-1.16;100.00;96916.56;5060106;28;20401;-66
2022/02/24 04:47:12;;;;;;;8.63;5.15;;;;;;;-1.24;100.00;96909.13;5056713;28;20040;-65
2022/02/24 04:49:37;;;;;;;7.90;5.13;;;;;;;-1.57;100.00;96909.72;5053735;28;20080;-66
2022/02/24 04:52:03;;;;;;;5.90;4.63;;;;;;;-1.77;100.00;96904.53;5054713;28;20017;-65
2022/02/24 04:54:28;;;;;;;7.90;5.05;;;;;;;-1.99;100.00;96902.28;5054458;28;20367;-66
2022/02/24 04:56:54;;;;;;;9.40;5.75;;;;;;;-2.15;100.00;96896.25;5053761;28;20090;-63
2022/02/24 04:59:19;;;;;;;10.93;5.93;;;;;;;-2.25;100.00;96897.13;5054602;28;20032;-65
2022/02/24 05:01:44;;;;;;;10.85;5.30;;;;;;;-2.26;100.00;96902.75;5054340;28;20041;-64
2022/02/24 05:04:10;;;;;;;9.65;5.30;;;;;;;-2.03;100.00;96903.94;5050275;28;20116;-65
2022/02/24 05:06:35;;;;;;;9.63;5.65;;;;;;;-1.82;100.00;96896.50;5053279;28;20024;-63
2022/02/24 05:09:01;;;;;;;10.20;5.70;;;;;;;-1.64;100.00;96892.31;5050922;28;20032;-66
2022/02/24 05:11:26;;;;;;;12.00;6.03;;;;;;;-1.61;100.00;96889.09;5054354;28;20037;-65
2022/02/24 05:13:52;;;;;;;9.15;5.68;;;;;;;-1.66;100.00;96889.13;5053471;28;20017;-63
2022/02/24 05:16:17;;;;;;;10.98;5.88;;;;;;;-1.58;100.00;96878.56;5053716;28;20043;-65
2022/02/24 05:18:43;;;;;;;8.93;4.95;;;;;;;-1.48;100.00;96876.88;5052442;28;20033;-63
2022/02/24 05:21:08;;;;;;;6.53;5.18;;;;;;;-1.54;100.00;96878.81;5050639;28;20048;-62
2022/02/24 05:23:33;;;;;;;8.23;4.95;;;;;;;-1.55;100.00;96877.19;5052713;28;20029;-64
2022/02/24 05:25:59;;;;;;;8.23;5.35;;;;;;;-1.71;100.00;96870.38;5053650;28;20123;-65
2022/02/24 05:28:24;;;;;;;8.27;5.70;;;;;;;-1.76;100.00;96866.66;5059750;28;20040;-65
2022/02/24 05:30:58;;;;;;;8.77;5.85;;;;;;;-1.88;100.00;96860.84;5073402;28;20036;-64
2022/02/24 05:33:24;;;;;;;9.75;5.55;;;;;;;-2.09;100.00;96860.22;5043331;28;20067;-64
2022/02/24 05:35:49;;;;;;;7.60;5.60;;;;;;;-2.18;100.00;96867.28;5053625;28;20060;-64
2022/02/24 05:38:14;;;;;;;7.70;5.97;;;;;;;-2.10;100.00;96865.88;5055709;28;20037;-63
2022/02/24 05:40:40;;;;;;;9.90;6.53;;;;;;;-1.95;100.00;96869.22;5064345;28;20037;-65
2022/02/24 05:43:05;;;;;;;14.25;6.38;;;;;;;-1.87;100.00;96867.84;5060499;28;20044;-65
2022/02/24 05:45:30;;;;;;;9.57;5.20;;;;;;;-1.90;100.00;96863.03;5052860;28;20037;-65
2022/02/24 05:47:56;;;;;;;11.27;5.00;;;;;;;-1.97;100.00;96860.66;5053213;28;20025;-65
2022/02/24 05:50:21;;;;;;;6.32;5.03;;;;;;;-1.98;100.00;96853.69;5053177;28;20709;-63
2022/02/24 05:52:46;;;;;;;9.38;6.28;;;;;;;-1.79;100.00;96856.47;5054735;28;20067;-63
2022/02/24 05:55:12;;;;;;;18.67;9.10;;;;;;;-1.79;100.00;96853.00;5059118;28;20037;-64
2022/02/24 05:57:37;;;;;;;11.40;6.82;;;;;;;-1.75;100.00;96860.22;5052928;28;20056;-64
2022/02/24 06:00:04;;;;;;;9.55;5.60;;;;;;;-1.70;100.00;96853.19;5061787;28;20098;-63
2022/02/24 06:02:29;;;;;;;9.95;5.22;;;;;;;-1.77;100.00;96848.13;5052785;28;20032;-63
2022/02/24 06:04:55;;;;;;;7.20;5.25;;;;;;;-1.76;100.00;96852.44;5049330;28;20033;-63
2022/02/24 06:07:20;;;;;;;11.18;5.90;;;;;;;-1.82;100.00;96848.19;5052091;28;20037;-64
2022/02/24 06:09:46;;;;;;;12.75;5.78;;;;;;;-1.87;100.00;96849.03;5053945;28;20398;-64
2022/02/24 06:12:11;;;;;;;8.57;5.65;;;;;;;-1.93;100.00;96860.91;5052501;28;20033;-65
2022/02/24 06:14:36;;;;;;;10.75;6.30;;;;;;;-1.86;100.00;96853.31;5052292;28;20037;-62
2022/02/24 06:17:03;;;;;;;9.00;5.22;;;;;;;-1.69;100.00;96858.28;5052031;28;20052;-65
2022/02/24 06:19:28;;;;;;;13.18;5.93;;;;;;;-1.53;100.00;96853.56;5051460;28;20029;-63
2022/02/24 06:21:54;;;;;;;9.27;7.00;;;;;;;-1.44;100.00;96856.41;5051712;28;20037;-62
2022/02/24 06:24:19;;;;;;;8.70;6.45;;;;;;;-1.32;100.00;96854.13;5066283;28;20025;-65
2022/02/24 06:26:45;;;;;;;10.15;6.30;;;;;;;-1.25;100.00;96853.78;5054683;28;20495;-61
2022/02/24 06:29:11;;;;;;;11.43;6.07;;;;;;;-1.27;100.00;96846.00;5052551;28;20508;-63
2022/02/24 06:31:37;;;;;;;7.85;5.25;;;;;;;-1.27;100.00;96847.91;5049417;28;20754;-65
2022/02/24 06:34:03;;;;;;;7.93;5.45;;;;;;;-1.28;100.00;96849.75;5044763;28;20042;-64
2022/02/24 06:36:30;;;;;;;8.85;5.43;;;;;;;-1.30;100.00;96840.41;5052310;28;20029;-65
2022/02/24 06:38:57;;;;;;;12.57;5.97;;;;;;;-1.35;100.00;96836.69;5052456;28;20033;-62
2022/02/24 06:41:23;;;;;;;8.65;6.10;;;;;;;-1.26;100.00;96844.94;5052502;28;20476;-64
2022/02/24 06:43:48;;;;;;;10.07;5.60;;;;;;;-1.32;100.00;96840.69;5051379;28;20037;-65
2022/02/24 06:46:17;;;;;;;7.15;5.60;;;;;;;-1.14;100.00;96841.03;5051122;28;20516;-66
2022/02/24 06:48:42;;;;;;;21.70;8.90;;;;;;;-1.23;100.00;96830.09;5054229;28;20036;-65
2022/02/24 06:51:08;;;;;;;12.90;6.53;;;;;;;-1.38;100.00;96826.50;5054723;28;20041;-62
2022/02/24 06:53:33;;;;;;;9.88;5.72;;;;;;;-1.53;100.00;96834.75;5050546;28;20036;-63
2022/02/24 06:55:59;;;;;;;12.02;6.70;;;;;;;-1.49;100.00;96833.09;5051667;28;20025;-63
2022/02/24 06:58:25;;;;;;;10.13;6.20;;;;;;;-1.45;100.00;96841.38;5057270;28;20504;-64
2022/02/24 07:00:51;;;;;;;12.82;7.15;;;;;;;-1.18;100.00;96843.50;5051978;28;20100;-64
2022/02/24 07:03:16;;;;;;;13.85;7.35;;;;;;;-0.94;100.00;96840.75;5047425;28;20144;-62
2022/02/24 07:05:42;;;;;;;9.98;6.63;;;;;;;-0.68;100.00;96835.84;5046770;28;20503;-64
2022/02/24 07:08:07;;;;;;;10.55;6.57;;;;;;;-0.52;100.00;96839.13;5047855;28;20036;-67
2022/02/24 07:10:33;;;;;;;13.52;7.07;;;;;;;-0.61;100.00;96839.00;5050756;28;20118;-65
2022/02/24 07:12:58;;;;;;;13.00;6.90;;;;;;;-0.37;100.00;96845.38;5050701;28;20547;-64
2022/02/24 07:15:24;;;;;;;11.73;6.53;;;;;;;-0.15;100.00;96850.94;5046832;28;20025;-63
2022/02/24 07:17:49;;;;;;;12.57;7.32;;;;;;;-0.05;100.00;96847.31;5051736;28;20393;-66
2022/02/24 07:20:17;;;;;;;12.90;7.90;;;;;;;0.08;100.00;96854.63;5047227;28;20044;-65
2022/02/24 07:22:42;;;;;;;12.68;6.70;;;;;;;0.39;100.00;96851.41;5051306;28;20033;-65
2022/02/24 07:25:08;;;;;;;13.82;6.47;;;;;;;0.53;100.00;96859.53;5051079;28;20426;-65
2022/02/24 07:27:34;;;;;;;11.48;6.50;;;;;;;0.81;100.00;96862.22;5058074;28;20032;-65
2022/02/24 07:30:03;;;;;;;12.75;5.30;;;;;;;0.63;100.00;96855.81;5062256;28;20047;-66
2022/02/24 07:32:29;;;;;;;8.73;5.50;;;;;;;0.84;100.00;96850.84;5050957;28;20025;-65
2022/02/24 07:34:54;;;;;;;8.00;5.22;;;;;;;1.38;100.00;96851.09;5055334;28;20675;-62
2022/02/24 07:37:20;;;;;;;10.25;5.40;;;;;;;1.78;100.00;96851.28;5053581;28;20056;-65
2022/02/24 07:39:45;;;;;;;11.80;6.25;;;;;;;1.71;100.00;96847.13;5053822;28;20032;-65
2022/02/24 07:42:11;;;;;;;12.68;7.93;;;;;;;1.32;100.00;96842.31;5052943;28;20036;-65
2022/02/24 07:44:36;;;;;;;12.15;7.32;;;;;;;1.79;100.00;96834.78;5049623;28;20033;-64
2022/02/24 07:47:02;;;;;;;10.30;7.03;;;;;;;1.56;100.00;96838.56;5050372;28;20056;-66
2022/02/24 07:49:28;;;;;;;12.25;6.90;;;;;;;1.06;100.00;96826.69;5050802;28;20033;-67
2022/02/24 07:51:53;;;;;;;14.18;9.23;;;;;;;1.56;100.00;96843.97;5047081;28;20021;-66
2022/02/24 07:54:20;;;;;;;10.57;7.68;;;;;;;2.65;100.00;96844.50;5045800;28;20370;-66
2022/02/24 07:56:46;;;;;;;9.77;6.47;;;;;;;3.76;92.63;96834.56;5048561;28;20029;-66
2022/02/24 07:59:13;;;;;;;8.98;6.18;;;;;;;4.66;90.05;96830.25;5047760;28;20052;-65
2022/02/24 08:01:39;;;;;;;11.98;6.18;;;;;;;5.18;83.80;96832.75;5046457;28;20078;-67
2022/02/24 08:04:04;;;;;;;12.40;5.70;;;;;;;6.47;77.20;96836.72;5047595;28;20037;-67
2022/02/24 08:06:30;;;;;;;8.32;5.18;;;;;;;7.02;73.56;96838.16;5054720;28;20068;-66
2022/02/24 08:08:55;;;;;;;20.35;5.45;;;;;;;7.36;73.26;96836.09;5042891;28;20065;-66
2022/02/24 08:11:20;;;;;;;10.75;5.18;;;;;;;7.01;73.64;96846.66;5047285;28;20436;-66
2022/02/24 08:13:46;;;;;;;7.85;4.45;;;;;;;7.10;73.63;96850.06;5050160;28;20487;-65
2022/02/24 08:16:11;;;;;;;12.57;5.35;;;;;;;7.50;72.88;96845.84;5049805;28;20044;-66
2022/02/24 08:18:37;;;;;;;9.77;5.28;;;;;;;7.00;75.01;96848.56;5051031;28;20021;-67
2022/02/24 08:21:02;;;;;;;10.07;5.70;;;;;;;6.51;75.76;96854.75;5049325;28;20032;-66
2022/02/24 08:23:28;;;;;;;12.20;5.55;;;;;;;7.28;74.49;96856.09;5049770;28;20033;-65
2022/02/24 08:25:53;;;;;;;10.02;6.35;;;;;;;7.35;74.12;96850.88;5049009;28;20040;-66
2022/02/24 08:28:18;;;;;;;11.00;5.68;;;;;;;7.26;74.99;96850.97;5049710;28;20037;-65
2022/02/24 08:30:45;;;;;;;15.50;6.55;;;;;;;7.25;72.96;96860.28;5047168;28;20069;-67
2022/02/24 08:33:11;;;;;;;12.93;7.65;;;;;;;8.10;69.95;96856.97;5050291;28;20108;-67
2022/02/24 08:35:37;;;;;;;15.05;6.60;;;;;;;8.14;71.70;96858.66;5054261;28;20496;-65
2022/02/24 08:38:04;;;;;;;14.38;6.30;;;;;;;7.84;71.41;96850.00;5058111;28;20574;-65
2022/02/24 08:40:29;;;;;;;18.77;7.25;;;;;;;7.12;74.81;96847.81;5046828;28;20031;-66
2022/02/24 08:42:55;;;;;;;14.55;7.57;;;;;;;7.37;75.52;96843.16;5046376;28;20112;-66
2022/02/24 08:45:21;;;;;;;24.20;8.82;;;;;;;7.15;73.94;96854.50;5045671;28;20044;-67
2022/02/24 08:47:47;;;;;;;15.55;7.97;;;;;;;7.62;75.70;96846.63;5043882;28;20033;-66
2022/02/24 08:50:14;;;;;;;10.77;6.13;;;;;;;7.68;75.15;96840.94;5048343;28;20047;-66
2022/02/24 08:52:39;;;;;;;11.35;6.80;;;;;;;7.44;77.03;96839.84;5049231;28;20139;-64
2022/02/24 08:55:05;;;;;;;14.82;7.18;;;;;;;7.08;78.69;96839.53;5049452;28;20158;-65
2022/02/24 08:57:31;;;;;;;14.52;7.22;;;;;;;6.81;81.44;96846.41;5050146;28;20036;-65
2022/02/24 08:59:56;;;;;;;34.08;10.88;;;;;;;6.85;83.45;96838.38;5047438;28;20029;-65
2022/02/24 09:02:22;;;;;;;14.48;8.38;;;;;;;6.09;86.17;96841.22;5047920;28;20048;-65
2022/02/24 09:04:47;;;;;;;13.05;7.68;;;;;;;6.76;84.07;96837.69;5041575;28;20041;-68
2022/02/24 09:07:13;;;;;;;34.00;10.75;;;;;;;6.59;83.77;96834.03;5033588;28;20059;-66
2022/02/24 09:09:38;;;;;;;35.35;9.27;;;;;;;6.68;86.34;96833.91;5040235;28;20037;-67
2022/02/24 09:12:04;;;;;;;24.95;10.75;;;;;;;6.58;88.72;96829.69;5037028;28;20091;-70
2022/02/24 09:14:30;;;;;;;22.63;10.10;;;;;;;6.21;89.85;96823.38;5040567;28;20048;-66
2022/02/24 09:16:56;;;;;;;60.60;11.68;;;;;;;5.99;90.99;96821.81;5047959;28;20041;-64
2022/02/24 09:19:22;;;;;;;15.57;9.52;;;;;;;6.15;92.32;96817.34;5035619;28;20525;-65
2022/02/24 09:21:47;;;;;;;16.52;9.80;;;;;;;6.11;91.71;96814.50;5041589;28;20528;-66
2022/02/24 09:24:13;;;;;;;19.52;9.38;;;;;;;6.26;92.60;96806.84;5031759;28;20041;-67
2022/02/24 09:26:39;;;;;;;23.48;10.15;;;;;;;6.04;92.94;96808.81;5044017;28;20079;-65
2022/02/24 09:29:05;;;;;;;23.85;10.10;;;;;;;6.52;91.35;96795.69;5040728;28;20053;-70
2022/02/24 09:31:31;;;;;;;19.88;10.27;;;;;;;6.36;90.24;96808.34;5036593;28;20037;-68
2022/02/24 09:33:57;;;;;;;39.72;11.98;;;;;;;6.28;91.94;96791.78;5058690;28;20599;-66
2022/02/24 09:36:22;;;;;;;20.73;11.18;;;;;;;6.51;92.22;96794.09;5037716;28;20049;-69
2022/02/24 09:38:48;;;;;;;30.88;12.23;;;;;;;5.75;94.39;96790.66;5031693;28;20140;-66
2022/02/24 09:41:14;;;;;;;59.90;12.77;;;;;;;4.54;100.00;96782.91;5028064;28;20045;-67
2022/02/24 09:43:40;;;;;;;31.00;13.20;;;;;;;4.31;100.00;96782.34;5034384;28;20076;-65
2022/02/24 09:46:08;;;;;;;36.53;17.05;;;;;;;4.73;100.00;96779.00;5048002;28;20045;-66
2022/02/24 09:48:36;;;;;;;44.22;16.35;;;;;;;4.14;100.00;96777.78;5039853;28;20075;-66
2022/02/24 09:51:05;;;;;;;37.05;21.92;;;;;;;4.75;100.00;96766.72;5041678;28;20144;-71
2022/02/24 09:53:32;;;;;;;24.47;13.93;;;;;;;5.41;100.00;96767.28;5025856;28;20087;-66
2022/02/24 09:55:58;;;;;;;22.45;12.55;;;;;;;6.74;98.83;96774.63;5031127;28;20469;-66
2022/02/24 09:58:24;;;;;;;21.77;12.02;;;;;;;8.08;85.57;96761.03;5032975;28;20072;-68
2022/02/24 10:00:51;;;;;;;20.55;11.73;;;;;;;8.18;86.63;96760.53;5031826;28;20069;-66
2022/02/24 10:03:26;;;;;;;27.08;12.57;;;;;;;8.82;83.05;96755.91;5032364;28;20052;-65
2022/02/24 10:05:51;;;;;;;19.73;11.48;;;;;;;8.45;79.89;96758.16;5041764;28;20064;-68
2022/02/24 10:08:16;;;;;;;19.65;11.43;;;;;;;8.24;86.28;96756.41;5020124;28;20053;-66
2022/02/24 10:10:43;;;;;;;35.05;18.92;;;;;;;7.73;89.73;96756.19;5035589;28;20040;-65
2022/02/24 10:13:13;;;;;;;21.33;12.27;;;;;;;8.35;85.93;96760.19;5026493;28;20041;-66
2022/02/24 10:15:43;;;;;;;22.27;12.90;;;;;;;9.42;78.91;96755.75;5038841;28;20056;-67
2022/02/24 10:18:14;;;;;;;42.20;15.82;;;;;;;9.91;76.08;96749.72;5032874;28;20505;-66
2022/02/24 10:20:43;;;;;;;21.05;13.02;;;;;;;9.92;73.25;96747.75;5034363;28;20045;-64
2022/02/24 10:23:09;;;;;;;31.85;14.57;;;;;;;10.35;72.92;96747.81;5035236;28;20041;-66
2022/02/24 10:25:52;;;;;;;19.42;11.48;;;;;;;10.49;70.03;96735.16;5048719;28;20516;-69
2022/02/24 10:28:30;;;;;;;18.55;10.63;;;;;;;10.78;69.75;96734.84;5040659;28;20076;-67
2022/02/24 10:30:57;;;;;;;19.90;12.27;;;;;;;10.52;69.99;96742.66;5046230;28;20042;-68
2022/02/24 10:33:30;;;;;;;15.90;10.60;;;;;;;10.87;70.32;96735.38;5046277;28;20063;-67
2022/02/24 10:36:09;;;;;;;15.52;9.98;;;;;;;11.04;70.14;96729.38;5037247;28;20041;-67
2022/02/24 10:38:37;;;;;;;23.23;9.80;;;;;;;11.60;67.74;96722.31;5043943;28;20477;-65
2022/02/24 10:41:02;;;;;;;21.67;10.35;;;;;;;12.19;63.48;96725.38;5044332;28;20111;-70
2022/02/24 10:43:34;;;;;;;16.98;9.93;;;;;;;13.16;59.91;96717.94;5029040;28;20117;-66
2022/02/24 10:46:06;;;;;;;15.95;8.52;;;;;;;13.10;58.19;96713.97;5042542;28;20045;-65
2022/02/24 10:48:46;;;;;;;14.13;9.27;;;;;;;12.35;58.60;96703.19;5038895;28;20040;-66
2022/02/24 10:51:11;;;;;;;;;;;;;;;12.80;60.10;96692.16;5025170;28;20046;-68
2022/02/24 10:53:37;;;;;;;13.63;8.33;;;;;;;12.21;60.39;96692.84;5035000;28;19924;-66
2022/02/24 10:56:07;;;;;;;11.98;7.43;;;;;;;12.30;63.71;96688.97;5034189;28;20284;-69
2022/02/24 10:58:45;;;;;;;12.80;7.65;;;;;;;12.26;60.80;96688.94;5034872;28;20103;-64
2022/02/24 11:01:12;;;;;;;11.15;7.60;;;;;;;13.14;59.68;96681.78;5030359;28;20086;-68
2022/02/24 11:03:40;;;;;;;10.98;7.30;;;;;;;13.54;57.33;96685.56;5039908;28;20472;-66
2022/02/24 11:06:07;;;;;;;12.63;7.68;;;;;;;13.63;57.45;96682.47;5028544;28;20173;-70
2022/02/24 11:08:34;;;;;;;13.35;7.80;;;;;;;13.14;59.81;96683.72;5025842;28;20604;-64
2022/02/24 11:11:00;;;;;;;13.02;7.43;;;;;;;12.95;60.26;96674.59;5025143;28;20045;-66
2022/02/24 11:13:30;;;;;;;15.77;8.23;;;;;;;12.52;62.26;96676.25;5025628;28;20089;-66
2022/02/24 11:15:57;;;;;;;18.90;9.50;;;;;;;12.37;63.66;96673.38;5032474;28;20045;-64
2022/02/24 11:18:23;;;;;;;17.08;8.95;;;;;;;12.12;66.92;96675.06;5020017;28;20785;-63
2022/02/24 11:20:49;;;;;;;14.82;8.43;;;;;;;11.06;70.01;96676.94;5033281;28;20120;-64